sensor_id;sensor_type;location;lat;lon;timestamp;P1;durP1;ratioP1;P2;durP2;ratioP2
41677;SDS011;27364;49.026;8.712;2023-04-24T00:00:13;3.53;;;1.90;;
41677;SDS011;27364;49.026;8.712;2023-04-24T00:02:43;7.13;;;2.00;;
41677;SDS011;27364;49.026;8.712;2023-04-24T00:05:16;3.38;;;1.73;;
41677;SDS011;27364;49.026;8.712;2023-04-24T00:07:43;7.13;;;1.50;;
41677;SDS011;27364;49.026;8.712;2023-04-24T00:10:10;1.98;;;1.20;;
41677;SDS011;27364;49.026;8.712;2023-04-24T00:12:36;2.35;;;1.10;;
41677;SDS011;27364;49.026;8.712;2023-04-24T00:15:01;1.88;;;0.90;;
41677;SDS011;27364;49.026;8.712;2023-04-24T00:17:27;2.00;;;1.10;;
41677;SDS011;27364;49.026;8.712;2023-04-24T00:19:53;1.40;;;0.80;;
41677;SDS011;27364;49.026;8.712;2023-04-24T00:22:23;1.77;;;1.00;;
41677;SDS011;27364;49.026;8.712;2023-04-24T00:24:50;1.67;;;1.00;;
41677;SDS011;27364;49.026;8.712;2023-04-24T00:27:15;1.13;;;0.90;;
41677;SDS011;27364;49.026;8.712;2023-04-24T00:29:41;1.05;;;0.80;;
41677;SDS011;27364;49.026;8.712;2023-04-24T00:32:06;1.77;;;0.85;;
41677;SDS011;27364;49.026;8.712;2023-04-24T00:34:32;0.98;;;0.82;;
41677;SDS011;27364;49.026;8.712;2023-04-24T00:36:57;1.42;;;0.70;;
41677;SDS011;27364;49.026;8.712;2023-04-24T00:39:23;1.10;;;0.90;;
41677;SDS011;27364;49.026;8.712;2023-04-24T00:41:48;1.50;;;0.93;;
41677;SDS011;27364;49.026;8.712;2023-04-24T00:44:15;2.13;;;1.00;;
41677;SDS011;27364;49.026;8.712;2023-04-24T00:46:41;2.85;;;1.10;;
41677;SDS011;27364;49.026;8.712;2023-04-24T00:49:07;1.38;;;0.90;;
41677;SDS011;27364;49.026;8.712;2023-04-24T00:51:33;0.93;;;0.80;;
41677;SDS011;27364;49.026;8.712;2023-04-24T00:53:59;1.08;;;0.70;;
41677;SDS011;27364;49.026;8.712;2023-04-24T00:56:25;1.23;;;0.80;;
41677;SDS011;27364;49.026;8.712;2023-04-24T00:58:51;1.38;;;0.80;;
41677;SDS011;27364;49.026;8.712;2023-04-24T01:01:17;1.70;;;1.00;;
41677;SDS011;27364;49.026;8.712;2023-04-24T01:03:47;1.80;;;1.00;;
41677;SDS011;27364;49.026;8.712;2023-04-24T01:06:15;1.13;;;0.90;;
41677;SDS011;27364;49.026;8.712;2023-04-24T01:08:41;2.60;;;0.90;;
41677;SDS011;27364;49.026;8.712;2023-04-24T01:11:08;2.42;;;0.90;;
41677;SDS011;27364;49.026;8.712;2023-04-24T01:13:33;1.00;;;0.80;;
41677;SDS011;27364;49.026;8.712;2023-04-24T01:15:59;2.42;;;0.90;;
41677;SDS011;27364;49.026;8.712;2023-04-24T01:18:25;2.25;;;1.08;;
41677;SDS011;27364;49.026;8.712;2023-04-24T01:20:53;1.60;;;0.90;;
41677;SDS011;27364;49.026;8.712;2023-04-24T01:23:21;1.08;;;0.73;;
41677;SDS011;27364;49.026;8.712;2023-04-24T01:25:47;4.63;;;1.27;;
41677;SDS011;27364;49.026;8.712;2023-04-24T01:28:14;1.77;;;1.00;;
41677;SDS011;27364;49.026;8.712;2023-04-24T01:30:40;2.60;;;1.00;;
41677;SDS011;27364;49.026;8.712;2023-04-24T01:33:06;1.60;;;0.90;;
41677;SDS011;27364;49.026;8.712;2023-04-24T01:35:32;1.40;;;0.93;;
41677;SDS011;27364;49.026;8.712;2023-04-24T01:37:58;1.77;;;0.85;;
41677;SDS011;27364;49.026;8.712;2023-04-24T01:40:24;5.22;;;1.30;;
41677;SDS011;27364;49.026;8.712;2023-04-24T01:42:49;2.05;;;0.90;;
41677;SDS011;27364;49.026;8.712;2023-04-24T01:45:15;1.73;;;1.00;;
41677;SDS011;27364;49.026;8.712;2023-04-24T01:47:41;1.98;;;0.90;;
41677;SDS011;27364;49.026;8.712;2023-04-24T01:50:07;2.72;;;1.00;;
41677;SDS011;27364;49.026;8.712;2023-04-24T01:52:33;1.55;;;0.85;;
41677;SDS011;27364;49.026;8.712;2023-04-24T01:55:00;2.20;;;0.95;;
41677;SDS011;27364;49.026;8.712;2023-04-24T01:57:25;1.02;;;0.70;;
41677;SDS011;27364;49.026;8.712;2023-04-24T01:59:51;1.58;;;0.90;;
41677;SDS011;27364;49.026;8.712;2023-04-24T02:02:17;1.00;;;0.80;;
41677;SDS011;27364;49.026;8.712;2023-04-24T02:04:43;2.80;;;1.02;;
41677;SDS011;27364;49.026;8.712;2023-04-24T02:07:08;2.40;;;0.95;;
41677;SDS011;27364;49.026;8.712;2023-04-24T02:09:34;3.25;;;1.13;;
41677;SDS011;27364;49.026;8.712;2023-04-24T02:11:59;4.38;;;1.20;;
41677;SDS011;27364;49.026;8.712;2023-04-24T02:14:25;3.67;;;1.30;;
41677;SDS011;27364;49.026;8.712;2023-04-24T02:16:51;2.17;;;1.00;;
41677;SDS011;27364;49.026;8.712;2023-04-24T02:19:16;0.68;;;0.68;;
41677;SDS011;27364;49.026;8.712;2023-04-24T02:21:42;0.90;;;0.90;;
41677;SDS011;27364;49.026;8.712;2023-04-24T02:24:07;2.03;;;1.10;;
41677;SDS011;27364;49.026;8.712;2023-04-24T02:26:33;1.00;;;0.75;;
41677;SDS011;27364;49.026;8.712;2023-04-24T02:28:58;1.15;;;0.85;;
41677;SDS011;27364;49.026;8.712;2023-04-24T02:31:24;2.88;;;0.90;;
41677;SDS011;27364;49.026;8.712;2023-04-24T02:33:50;2.63;;;1.10;;
41677;SDS011;27364;49.026;8.712;2023-04-24T02:36:15;3.03;;;1.00;;
41677;SDS011;27364;49.026;8.712;2023-04-24T02:38:41;3.25;;;1.00;;
41677;SDS011;27364;49.026;8.712;2023-04-24T02:41:06;1.83;;;1.00;;
41677;SDS011;27364;49.026;8.712;2023-04-24T02:43:32;1.70;;;0.90;;
41677;SDS011;27364;49.026;8.712;2023-04-24T02:45:58;2.05;;;1.00;;
41677;SDS011;27364;49.026;8.712;2023-04-24T02:48:24;1.38;;;0.75;;
41677;SDS011;27364;49.026;8.712;2023-04-24T02:50:49;2.05;;;0.90;;
41677;SDS011;27364;49.026;8.712;2023-04-24T02:53:15;2.53;;;0.90;;
41677;SDS011;27364;49.026;8.712;2023-04-24T02:55:41;1.50;;;0.90;;
41677;SDS011;27364;49.026;8.712;2023-04-24T02:58:07;1.15;;;0.90;;
41677;SDS011;27364;49.026;8.712;2023-04-24T03:00:32;1.40;;;0.88;;
41677;SDS011;27364;49.026;8.712;2023-04-24T03:02:58;3.28;;;0.90;;
41677;SDS011;27364;49.026;8.712;2023-04-24T03:05:24;2.70;;;0.90;;
41677;SDS011;27364;49.026;8.712;2023-04-24T03:07:50;3.15;;;1.05;;
41677;SDS011;27364;49.026;8.712;2023-04-24T03:10:17;2.42;;;0.90;;
41677;SDS011;27364;49.026;8.712;2023-04-24T03:12:43;1.52;;;0.95;;
41677;SDS011;27364;49.026;8.712;2023-04-24T03:15:08;1.95;;;0.70;;
41677;SDS011;27364;49.026;8.712;2023-04-24T03:17:35;2.13;;;1.05;;
41677;SDS011;27364;49.026;8.712;2023-04-24T03:20:01;2.25;;;1.08;;
41677;SDS011;27364;49.026;8.712;2023-04-24T03:22:27;1.48;;;0.80;;
41677;SDS011;27364;49.026;8.712;2023-04-24T03:24:53;1.40;;;0.80;;
41677;SDS011;27364;49.026;8.712;2023-04-24T03:27:19;1.92;;;0.90;;
41677;SDS011;27364;49.026;8.712;2023-04-24T03:29:45;0.85;;;0.80;;
41677;SDS011;27364;49.026;8.712;2023-04-24T03:32:10;2.05;;;1.00;;
41677;SDS011;27364;49.026;8.712;2023-04-24T03:34:36;1.45;;;1.00;;
41677;SDS011;27364;49.026;8.712;2023-04-24T03:37:01;1.88;;;0.90;;
41677;SDS011;27364;49.026;8.712;2023-04-24T03:39:27;1.08;;;0.80;;
41677;SDS011;27364;49.026;8.712;2023-04-24T03:41:52;2.22;;;0.90;;
41677;SDS011;27364;49.026;8.712;2023-04-24T03:44:18;5.00;;;1.20;;
41677;SDS011;27364;49.026;8.712;2023-04-24T03:46:43;1.40;;;1.10;;
41677;SDS011;27364;49.026;8.712;2023-04-24T03:49:09;1.75;;;1.00;;
41677;SDS011;27364;49.026;8.712;2023-04-24T03:51:34;1.75;;;1.10;;
41677;SDS011;27364;49.026;8.712;2023-04-24T03:54:00;1.70;;;1.20;;
41677;SDS011;27364;49.026;8.712;2023-04-24T03:56:25;3.00;;;1.67;;
41677;SDS011;27364;49.026;8.712;2023-04-24T03:58:51;3.00;;;1.40;;
41677;SDS011;27364;49.026;8.712;2023-04-24T04:01:16;3.30;;;1.30;;
41677;SDS011;27364;49.026;8.712;2023-04-24T04:03:43;3.75;;;1.73;;
41677;SDS011;27364;49.026;8.712;2023-04-24T04:06:09;1.92;;;1.30;;
41677;SDS011;27364;49.026;8.712;2023-04-24T04:08:36;4.57;;;1.27;;
41677;SDS011;27364;49.026;8.712;2023-04-24T04:11:01;4.47;;;1.42;;
41677;SDS011;27364;49.026;8.712;2023-04-24T04:13:27;2.85;;;1.50;;
41677;SDS011;27364;49.026;8.712;2023-04-24T04:15:52;2.45;;;1.38;;
41677;SDS011;27364;49.026;8.712;2023-04-24T04:18:18;2.30;;;1.40;;
41677;SDS011;27364;49.026;8.712;2023-04-24T04:20:44;2.03;;;1.38;;
41677;SDS011;27364;49.026;8.712;2023-04-24T04:23:09;2.58;;;1.45;;
41677;SDS011;27364;49.026;8.712;2023-04-24T04:25:35;2.40;;;1.55;;
41677;SDS011;27364;49.026;8.712;2023-04-24T04:28:01;1.48;;;1.20;;
41677;SDS011;27364;49.026;8.712;2023-04-24T04:30:27;3.00;;;1.50;;
41677;SDS011;27364;49.026;8.712;2023-04-24T04:32:54;2.80;;;1.52;;
41677;SDS011;27364;49.026;8.712;2023-04-24T04:35:20;2.20;;;1.40;;
41677;SDS011;27364;49.026;8.712;2023-04-24T04:37:45;2.38;;;1.50;;
41677;SDS011;27364;49.026;8.712;2023-04-24T04:40:11;2.72;;;1.40;;
41677;SDS011;27364;49.026;8.712;2023-04-24T04:42:36;1.70;;;1.20;;
41677;SDS011;27364;49.026;8.712;2023-04-24T04:45:05;2.50;;;1.58;;
41677;SDS011;27364;49.026;8.712;2023-04-24T04:47:34;2.10;;;1.40;;
41677;SDS011;27364;49.026;8.712;2023-04-24T04:49:59;2.20;;;1.42;;
41677;SDS011;27364;49.026;8.712;2023-04-24T04:52:26;3.90;;;1.85;;
41677;SDS011;27364;49.026;8.712;2023-04-24T04:54:51;2.55;;;1.42;;
41677;SDS011;27364;49.026;8.712;2023-04-24T04:57:17;2.65;;;1.63;;
41677;SDS011;27364;49.026;8.712;2023-04-24T04:59:43;2.00;;;1.40;;
41677;SDS011;27364;49.026;8.712;2023-04-24T05:02:08;2.90;;;1.70;;
41677;SDS011;27364;49.026;8.712;2023-04-24T05:04:34;2.05;;;1.45;;
41677;SDS011;27364;49.026;8.712;2023-04-24T05:06:59;3.80;;;1.40;;
41677;SDS011;27364;49.026;8.712;2023-04-24T05:09:25;2.90;;;1.60;;
41677;SDS011;27364;49.026;8.712;2023-04-24T05:11:52;2.03;;;1.48;;
41677;SDS011;27364;49.026;8.712;2023-04-24T05:14:18;1.92;;;1.40;;
41677;SDS011;27364;49.026;8.712;2023-04-24T05:16:44;2.65;;;1.75;;
41677;SDS011;27364;49.026;8.712;2023-04-24T05:19:09;3.45;;;2.08;;
41677;SDS011;27364;49.026;8.712;2023-04-24T05:21:36;2.70;;;1.80;;
41677;SDS011;27364;49.026;8.712;2023-04-24T05:24:02;4.07;;;2.33;;
41677;SDS011;27364;49.026;8.712;2023-04-24T05:26:27;2.47;;;1.70;;
41677;SDS011;27364;49.026;8.712;2023-04-24T05:28:53;4.85;;;2.78;;
41677;SDS011;27364;49.026;8.712;2023-04-24T05:31:19;4.78;;;1.90;;
41677;SDS011;27364;49.026;8.712;2023-04-24T05:33:44;3.05;;;2.00;;
41677;SDS011;27364;49.026;8.712;2023-04-24T05:36:10;2.92;;;1.60;;
41677;SDS011;27364;49.026;8.712;2023-04-24T05:38:35;2.70;;;2.00;;
41677;SDS011;27364;49.026;8.712;2023-04-24T05:41:01;4.35;;;2.10;;
41677;SDS011;27364;49.026;8.712;2023-04-24T05:43:26;3.40;;;2.15;;
41677;SDS011;27364;49.026;8.712;2023-04-24T05:45:52;3.72;;;2.60;;
41677;SDS011;27364;49.026;8.712;2023-04-24T05:48:18;3.90;;;2.38;;
41677;SDS011;27364;49.026;8.712;2023-04-24T05:50:44;2.65;;;1.80;;
41677;SDS011;27364;49.026;8.712;2023-04-24T05:53:09;3.65;;;1.73;;
41677;SDS011;27364;49.026;8.712;2023-04-24T05:55:35;5.55;;;2.97;;
41677;SDS011;27364;49.026;8.712;2023-04-24T05:58:01;2.95;;;2.03;;
41677;SDS011;27364;49.026;8.712;2023-04-24T06:00:27;2.50;;;1.80;;
41677;SDS011;27364;49.026;8.712;2023-04-24T06:02:53;2.78;;;1.92;;
41677;SDS011;27364;49.026;8.712;2023-04-24T06:05:20;2.83;;;1.90;;
41677;SDS011;27364;49.026;8.712;2023-04-24T06:07:45;2.65;;;1.80;;
41677;SDS011;27364;49.026;8.712;2023-04-24T06:10:11;3.13;;;2.00;;
41677;SDS011;27364;49.026;8.712;2023-04-24T06:12:36;2.72;;;1.85;;
41677;SDS011;27364;49.026;8.712;2023-04-24T06:15:02;3.60;;;2.17;;
41677;SDS011;27364;49.026;8.712;2023-04-24T06:17:28;2.70;;;1.70;;
41677;SDS011;27364;49.026;8.712;2023-04-24T06:19:54;2.83;;;1.73;;
41677;SDS011;27364;49.026;8.712;2023-04-24T06:22:19;2.83;;;1.67;;
41677;SDS011;27364;49.026;8.712;2023-04-24T06:24:45;3.10;;;1.65;;
41677;SDS011;27364;49.026;8.712;2023-04-24T06:27:12;2.22;;;1.60;;
41677;SDS011;27364;49.026;8.712;2023-04-24T06:29:37;2.50;;;1.70;;
41677;SDS011;27364;49.026;8.712;2023-04-24T06:32:03;3.38;;;1.70;;
41677;SDS011;27364;49.026;8.712;2023-04-24T06:34:28;3.03;;;1.80;;
41677;SDS011;27364;49.026;8.712;2023-04-24T06:36:55;3.47;;;1.70;;
41677;SDS011;27364;49.026;8.712;2023-04-24T06:39:21;2.63;;;1.75;;
41677;SDS011;27364;49.026;8.712;2023-04-24T06:41:47;2.78;;;1.70;;
41677;SDS011;27364;49.026;8.712;2023-04-24T06:44:12;3.00;;;1.67;;
41677;SDS011;27364;49.026;8.712;2023-04-24T06:46:39;2.75;;;1.70;;
41677;SDS011;27364;49.026;8.712;2023-04-24T06:49:05;2.78;;;1.90;;
41677;SDS011;27364;49.026;8.712;2023-04-24T06:51:31;3.40;;;2.20;;
41677;SDS011;27364;49.026;8.712;2023-04-24T06:53:57;2.50;;;1.77;;
41677;SDS011;27364;49.026;8.712;2023-04-24T06:56:23;2.40;;;1.70;;
41677;SDS011;27364;49.026;8.712;2023-04-24T06:58:50;2.90;;;1.65;;
41677;SDS011;27364;49.026;8.712;2023-04-24T07:01:16;3.50;;;2.20;;
41677;SDS011;27364;49.026;8.712;2023-04-24T07:03:42;2.83;;;1.63;;
41677;SDS011;27364;49.026;8.712;2023-04-24T07:06:07;2.78;;;1.80;;
41677;SDS011;27364;49.026;8.712;2023-04-24T07:08:35;2.70;;;1.60;;
41677;SDS011;27364;49.026;8.712;2023-04-24T07:11:00;3.20;;;1.65;;
41677;SDS011;27364;49.026;8.712;2023-04-24T07:13:26;2.83;;;1.50;;
41677;SDS011;27364;49.026;8.712;2023-04-24T07:15:53;2.83;;;1.50;;
41677;SDS011;27364;49.026;8.712;2023-04-24T07:18:20;2.47;;;1.50;;
41677;SDS011;27364;49.026;8.712;2023-04-24T07:20:46;2.63;;;1.23;;
41677;SDS011;27364;49.026;8.712;2023-04-24T07:23:12;2.88;;;1.48;;
41677;SDS011;27364;49.026;8.712;2023-04-24T07:25:40;3.20;;;1.45;;
41677;SDS011;27364;49.026;8.712;2023-04-24T07:28:06;2.40;;;1.60;;
41677;SDS011;27364;49.026;8.712;2023-04-24T07:30:31;2.45;;;1.60;;
41677;SDS011;27364;49.026;8.712;2023-04-24T07:32:58;2.20;;;1.55;;
41677;SDS011;27364;49.026;8.712;2023-04-24T07:35:23;2.67;;;1.65;;
41677;SDS011;27364;49.026;8.712;2023-04-24T07:37:51;2.47;;;1.42;;
41677;SDS011;27364;49.026;8.712;2023-04-24T07:40:17;2.47;;;1.67;;
41677;SDS011;27364;49.026;8.712;2023-04-24T07:42:43;2.80;;;1.50;;
41677;SDS011;27364;49.026;8.712;2023-04-24T07:45:09;2.78;;;1.45;;
41677;SDS011;27364;49.026;8.712;2023-04-24T07:47:35;2.60;;;1.75;;
41677;SDS011;27364;49.026;8.712;2023-04-24T07:50:02;2.03;;;1.33;;
41677;SDS011;27364;49.026;8.712;2023-04-24T07:52:27;2.15;;;1.55;;
41677;SDS011;27364;49.026;8.712;2023-04-24T07:54:54;2.00;;;1.35;;
41677;SDS011;27364;49.026;8.712;2023-04-24T07:57:23;2.30;;;1.30;;
41677;SDS011;27364;49.026;8.712;2023-04-24T07:59:49;2.72;;;1.42;;
41677;SDS011;27364;49.026;8.712;2023-04-24T08:02:15;2.08;;;1.30;;
41677;SDS011;27364;49.026;8.712;2023-04-24T08:04:41;2.30;;;1.20;;
41677;SDS011;27364;49.026;8.712;2023-04-24T08:07:06;1.85;;;1.27;;
41677;SDS011;27364;49.026;8.712;2023-04-24T08:09:32;2.10;;;1.40;;
41677;SDS011;27364;49.026;8.712;2023-04-24T08:11:59;2.00;;;1.35;;
41677;SDS011;27364;49.026;8.712;2023-04-24T08:14:24;3.92;;;1.38;;
41677;SDS011;27364;49.026;8.712;2023-04-24T08:16:50;1.23;;;1.10;;
41677;SDS011;27364;49.026;8.712;2023-04-24T08:21:44;1.70;;;1.20;;
41677;SDS011;27364;49.026;8.712;2023-04-24T08:24:09;2.15;;;1.20;;
41677;SDS011;27364;49.026;8.712;2023-04-24T08:26:35;1.95;;;1.20;;
41677;SDS011;27364;49.026;8.712;2023-04-24T08:29:00;1.90;;;1.23;;
41677;SDS011;27364;49.026;8.712;2023-04-24T08:31:26;2.42;;;1.33;;
41677;SDS011;27364;49.026;8.712;2023-04-24T08:33:52;1.40;;;1.10;;
41677;SDS011;27364;49.026;8.712;2023-04-24T08:36:17;2.30;;;1.15;;
41677;SDS011;27364;49.026;8.712;2023-04-24T08:38:43;2.00;;;1.30;;
41677;SDS011;27364;49.026;8.712;2023-04-24T08:41:08;1.98;;;1.30;;
41677;SDS011;27364;49.026;8.712;2023-04-24T08:43:35;1.92;;;1.20;;
41677;SDS011;27364;49.026;8.712;2023-04-24T08:46:03;3.45;;;1.17;;
41677;SDS011;27364;49.026;8.712;2023-04-24T08:48:29;1.92;;;1.35;;
41677;SDS011;27364;49.026;8.712;2023-04-24T08:50:56;1.70;;;1.15;;
41677;SDS011;27364;49.026;8.712;2023-04-24T08:53:23;2.50;;;1.20;;
41677;SDS011;27364;49.026;8.712;2023-04-24T08:55:50;1.38;;;1.08;;
41677;SDS011;27364;49.026;8.712;2023-04-24T08:58:17;1.58;;;1.10;;
41677;SDS011;27364;49.026;8.712;2023-04-24T09:00:45;3.20;;;1.58;;
41677;SDS011;27364;49.026;8.712;2023-04-24T09:03:15;2.80;;;1.17;;
41677;SDS011;27364;49.026;8.712;2023-04-24T09:05:46;1.85;;;1.27;;
41677;SDS011;27364;49.026;8.712;2023-04-24T09:08:15;2.22;;;1.17;;
41677;SDS011;27364;49.026;8.712;2023-04-24T09:10:43;2.00;;;1.30;;
41677;SDS011;27364;49.026;8.712;2023-04-24T09:13:08;3.15;;;1.40;;
41677;SDS011;27364;49.026;8.712;2023-04-24T09:15:35;2.22;;;1.15;;
41677;SDS011;27364;49.026;8.712;2023-04-24T09:18:01;2.65;;;1.40;;
41677;SDS011;27364;49.026;8.712;2023-04-24T09:20:27;3.50;;;1.60;;
41677;SDS011;27364;49.026;8.712;2023-04-24T09:22:54;4.15;;;1.20;;
41677;SDS011;27364;49.026;8.712;2023-04-24T09:25:21;2.03;;;1.30;;
41677;SDS011;27364;49.026;8.712;2023-04-24T09:27:46;2.00;;;1.30;;
41677;SDS011;27364;49.026;8.712;2023-04-24T09:30:13;2.88;;;1.30;;
41677;SDS011;27364;49.026;8.712;2023-04-24T09:32:39;2.85;;;1.50;;
41677;SDS011;27364;49.026;8.712;2023-04-24T09:35:06;2.22;;;1.30;;
41677;SDS011;27364;49.026;8.712;2023-04-24T09:37:43;2.10;;;1.27;;
41677;SDS011;27364;49.026;8.712;2023-04-24T09:42:38;1.95;;;1.30;;
41677;SDS011;27364;49.026;8.712;2023-04-24T09:45:04;4.07;;;1.50;;
41677;SDS011;27364;49.026;8.712;2023-04-24T09:47:38;2.58;;;1.55;;
41677;SDS011;27364;49.026;8.712;2023-04-24T09:50:11;3.47;;;2.13;;
41677;SDS011;27364;49.026;8.712;2023-04-24T09:52:44;2.78;;;1.50;;
41677;SDS011;27364;49.026;8.712;2023-04-24T09:55:21;2.35;;;1.40;;
41677;SDS011;27364;49.026;8.712;2023-04-24T09:57:47;3.53;;;1.52;;
41677;SDS011;27364;49.026;8.712;2023-04-24T10:00:17;6.78;;;2.30;;
41677;SDS011;27364;49.026;8.712;2023-04-24T10:03:00;2.70;;;1.58;;
41677;SDS011;27364;49.026;8.712;2023-04-24T10:05:30;2.50;;;1.63;;
41677;SDS011;27364;49.026;8.712;2023-04-24T10:08:18;4.20;;;2.70;;
41677;SDS011;27364;49.026;8.712;2023-04-24T10:10:46;3.42;;;1.92;;
41677;SDS011;27364;49.026;8.712;2023-04-24T10:13:13;2.65;;;1.92;;
41677;SDS011;27364;49.026;8.712;2023-04-24T10:30:57;2.58;;;1.88;;
41677;SDS011;27364;49.026;8.712;2023-04-24T10:33:24;2.70;;;1.65;;
41677;SDS011;27364;49.026;8.712;2023-04-24T10:36:02;2.55;;;1.50;;
41677;SDS011;27364;49.026;8.712;2023-04-24T10:38:39;2.85;;;1.50;;
41677;SDS011;27364;49.026;8.712;2023-04-24T10:41:10;3.30;;;1.90;;
41677;SDS011;27364;49.026;8.712;2023-04-24T10:43:48;2.28;;;1.50;;
41677;SDS011;27364;49.026;8.712;2023-04-24T10:46:29;4.18;;;1.83;;
41677;SDS011;27364;49.026;8.712;2023-04-24T10:48:58;2.15;;;1.48;;
41677;SDS011;27364;49.026;8.712;2023-04-24T10:51:24;2.35;;;1.60;;
41677;SDS011;27364;49.026;8.712;2023-04-24T10:54:22;4.50;;;1.73;;
41677;SDS011;27364;49.026;8.712;2023-04-24T10:57:45;3.40;;;1.90;;
41677;SDS011;27364;49.026;8.712;2023-04-24T10:59:50;3.45;;;1.88;;
41677;SDS011;27364;49.026;8.712;2023-04-24T11:02:38;3.85;;;2.00;;
41677;SDS011;27364;49.026;8.712;2023-04-24T11:05:05;2.70;;;1.83;;
41677;SDS011;27364;49.026;8.712;2023-04-24T11:10:46;2.97;;;1.88;;
41677;SDS011;27364;49.026;8.712;2023-04-24T11:13:21;4.47;;;2.47;;
41677;SDS011;27364;49.026;8.712;2023-04-24T11:18:52;2.78;;;1.73;;
41677;SDS011;27364;49.026;8.712;2023-04-24T11:21:25;4.88;;;1.95;;
41677;SDS011;27364;49.026;8.712;2023-04-24T11:29:47;4.32;;;2.40;;
41677;SDS011;27364;49.026;8.712;2023-04-24T11:34:52;3.78;;;2.35;;
41677;SDS011;27364;49.026;8.712;2023-04-24T11:39:44;3.42;;;2.17;;
41677;SDS011;27364;49.026;8.712;2023-04-24T11:42:10;4.18;;;2.40;;
41677;SDS011;27364;49.026;8.712;2023-04-24T11:44:38;3.67;;;2.45;;
41677;SDS011;27364;49.026;8.712;2023-04-24T11:47:06;4.45;;;2.72;;
41677;SDS011;27364;49.026;8.712;2023-04-24T11:49:37;5.50;;;3.92;;
41677;SDS011;27364;49.026;8.712;2023-04-24T11:52:03;4.00;;;2.72;;
41677;SDS011;27364;49.026;8.712;2023-04-24T11:54:29;14.15;;;6.63;;
41677;SDS011;27364;49.026;8.712;2023-04-24T11:56:55;4.10;;;2.83;;
41677;SDS011;27364;49.026;8.712;2023-04-24T11:59:21;7.32;;;4.00;;
41677;SDS011;27364;49.026;8.712;2023-04-24T12:01:47;7.22;;;4.13;;
41677;SDS011;27364;49.026;8.712;2023-04-24T12:04:13;5.72;;;3.22;;
41677;SDS011;27364;49.026;8.712;2023-04-24T12:06:40;4.63;;;3.20;;
41677;SDS011;27364;49.026;8.712;2023-04-24T12:09:23;3.72;;;2.72;;
41677;SDS011;27364;49.026;8.712;2023-04-24T12:11:55;3.60;;;2.80;;
41677;SDS011;27364;49.026;8.712;2023-04-24T12:14:24;4.07;;;2.97;;
41677;SDS011;27364;49.026;8.712;2023-04-24T12:16:50;4.53;;;2.90;;
41677;SDS011;27364;49.026;8.712;2023-04-24T12:19:22;3.63;;;2.40;;
41677;SDS011;27364;49.026;8.712;2023-04-24T12:22:04;4.03;;;2.83;;
41677;SDS011;27364;49.026;8.712;2023-04-24T12:24:31;4.85;;;2.90;;
41677;SDS011;27364;49.026;8.712;2023-04-24T12:26:57;3.80;;;2.83;;
41677;SDS011;27364;49.026;8.712;2023-04-24T12:29:23;4.30;;;3.30;;
41677;SDS011;27364;49.026;8.712;2023-04-24T12:31:50;6.80;;;3.50;;
41677;SDS011;27364;49.026;8.712;2023-04-24T12:36:46;5.63;;;2.47;;
41677;SDS011;27364;49.026;8.712;2023-04-24T12:39:16;3.97;;;2.65;;
41677;SDS011;27364;49.026;8.712;2023-04-24T12:41:55;3.28;;;2.15;;
41677;SDS011;27364;49.026;8.712;2023-04-24T12:44:29;4.15;;;2.45;;
41677;SDS011;27364;49.026;8.712;2023-04-24T12:46:59;4.30;;;2.25;;
41677;SDS011;27364;49.026;8.712;2023-04-24T12:49:25;4.32;;;2.25;;
41677;SDS011;27364;49.026;8.712;2023-04-24T12:51:51;3.40;;;2.25;;
41677;SDS011;27364;49.026;8.712;2023-04-24T12:54:17;3.83;;;2.40;;
41677;SDS011;27364;49.026;8.712;2023-04-24T12:56:43;4.70;;;2.45;;
41677;SDS011;27364;49.026;8.712;2023-04-24T12:59:09;4.43;;;2.15;;
41677;SDS011;27364;49.026;8.712;2023-04-24T13:01:34;3.00;;;2.10;;
41677;SDS011;27364;49.026;8.712;2023-04-24T13:04:00;3.55;;;2.10;;
41677;SDS011;27364;49.026;8.712;2023-04-24T13:06:26;4.30;;;2.53;;
41677;SDS011;27364;49.026;8.712;2023-04-24T13:08:51;3.03;;;2.05;;
41677;SDS011;27364;49.026;8.712;2023-04-24T13:11:17;3.35;;;2.10;;
41677;SDS011;27364;49.026;8.712;2023-04-24T13:13:42;2.95;;;2.20;;
41677;SDS011;27364;49.026;8.712;2023-04-24T13:16:08;3.20;;;2.05;;
41677;SDS011;27364;49.026;8.712;2023-04-24T13:18:36;4.55;;;2.38;;
41677;SDS011;27364;49.026;8.712;2023-04-24T13:21:02;2.83;;;1.88;;
41677;SDS011;27364;49.026;8.712;2023-04-24T13:23:27;3.45;;;2.10;;
41677;SDS011;27364;49.026;8.712;2023-04-24T13:25:54;3.38;;;2.10;;
41677;SDS011;27364;49.026;8.712;2023-04-24T13:28:22;3.83;;;2.28;;
41677;SDS011;27364;49.026;8.712;2023-04-24T13:30:48;3.38;;;2.00;;
41677;SDS011;27364;49.026;8.712;2023-04-24T13:33:13;3.65;;;2.08;;
41677;SDS011;27364;49.026;8.712;2023-04-24T13:35:39;3.45;;;2.05;;
41677;SDS011;27364;49.026;8.712;2023-04-24T13:38:04;6.45;;;2.67;;
41677;SDS011;27364;49.026;8.712;2023-04-24T13:40:31;3.95;;;2.17;;
41677;SDS011;27364;49.026;8.712;2023-04-24T13:42:57;3.80;;;2.10;;
41677;SDS011;27364;49.026;8.712;2023-04-24T13:45:22;3.30;;;2.20;;
41677;SDS011;27364;49.026;8.712;2023-04-24T13:47:48;4.30;;;2.20;;
41677;SDS011;27364;49.026;8.712;2023-04-24T13:50:13;3.63;;;2.15;;
41677;SDS011;27364;49.026;8.712;2023-04-24T13:52:40;2.60;;;1.80;;
41677;SDS011;27364;49.026;8.712;2023-04-24T13:55:05;4.25;;;2.05;;
41677;SDS011;27364;49.026;8.712;2023-04-24T13:57:31;6.55;;;2.13;;
41677;SDS011;27364;49.026;8.712;2023-04-24T13:59:57;3.70;;;2.13;;
41677;SDS011;27364;49.026;8.712;2023-04-24T14:02:26;2.90;;;1.90;;
41677;SDS011;27364;49.026;8.712;2023-04-24T14:04:52;3.63;;;2.20;;
41677;SDS011;27364;49.026;8.712;2023-04-24T14:07:18;3.03;;;2.00;;
41677;SDS011;27364;49.026;8.712;2023-04-24T14:09:43;2.80;;;1.98;;
41677;SDS011;27364;49.026;8.712;2023-04-24T14:12:09;3.78;;;2.20;;
41677;SDS011;27364;49.026;8.712;2023-04-24T14:14:34;4.00;;;2.15;;
41677;SDS011;27364;49.026;8.712;2023-04-24T14:17:00;3.25;;;2.20;;
41677;SDS011;27364;49.026;8.712;2023-04-24T14:19:25;4.25;;;2.20;;
41677;SDS011;27364;49.026;8.712;2023-04-24T14:21:51;3.65;;;2.00;;
41677;SDS011;27364;49.026;8.712;2023-04-24T14:24:17;3.97;;;2.22;;
41677;SDS011;27364;49.026;8.712;2023-04-24T14:26:42;2.85;;;2.05;;
41677;SDS011;27364;49.026;8.712;2023-04-24T14:29:08;2.70;;;1.80;;
41677;SDS011;27364;49.026;8.712;2023-04-24T14:31:33;3.65;;;2.20;;
41677;SDS011;27364;49.026;8.712;2023-04-24T14:33:59;3.10;;;1.67;;
41677;SDS011;27364;49.026;8.712;2023-04-24T14:36:25;2.75;;;1.67;;
41677;SDS011;27364;49.026;8.712;2023-04-24T14:38:50;3.63;;;1.85;;
41677;SDS011;27364;49.026;8.712;2023-04-24T14:41:16;2.40;;;1.67;;
41677;SDS011;27364;49.026;8.712;2023-04-24T14:43:41;2.33;;;1.60;;
41677;SDS011;27364;49.026;8.712;2023-04-24T14:46:07;2.70;;;1.73;;
41677;SDS011;27364;49.026;8.712;2023-04-24T14:48:33;2.80;;;2.00;;
41677;SDS011;27364;49.026;8.712;2023-04-24T14:50:58;3.10;;;2.10;;
41677;SDS011;27364;49.026;8.712;2023-04-24T14:53:24;3.58;;;2.17;;
41677;SDS011;27364;49.026;8.712;2023-04-24T14:55:49;2.47;;;1.75;;
41677;SDS011;27364;49.026;8.712;2023-04-24T14:58:15;2.90;;;1.70;;
41677;SDS011;27364;49.026;8.712;2023-04-24T15:00:40;2.20;;;1.60;;
41677;SDS011;27364;49.026;8.712;2023-04-24T15:03:06;3.92;;;1.85;;
41677;SDS011;27364;49.026;8.712;2023-04-24T15:05:32;2.60;;;1.70;;
41677;SDS011;27364;49.026;8.712;2023-04-24T15:07:57;2.75;;;1.63;;
41677;SDS011;27364;49.026;8.712;2023-04-24T15:10:23;2.08;;;1.40;;
41677;SDS011;27364;49.026;8.712;2023-04-24T15:12:50;2.28;;;1.40;;
41677;SDS011;27364;49.026;8.712;2023-04-24T15:15:16;3.80;;;1.90;;
41677;SDS011;27364;49.026;8.712;2023-04-24T15:17:41;2.97;;;1.73;;
41677;SDS011;27364;49.026;8.712;2023-04-24T15:20:07;2.45;;;1.40;;
41677;SDS011;27364;49.026;8.712;2023-04-24T15:22:33;1.73;;;1.13;;
41677;SDS011;27364;49.026;8.712;2023-04-24T15:24:59;2.95;;;1.50;;